Time,TemperatureF,DewpointF,PressureIn,WindDirection,WindDirectionDegrees,WindSpeedMPH,WindSpeedGustMPH,Humidity,HourlyPrecipIn,Conditions,Clouds,dailyrainin,SoftwareType,DateUTC
2013-04-06 00:15:00,30.2,29.7,29.81,NNW,337,0.0,-999.0,98,-99.99,,,0.00,Acu-Link.com,2013-04-06 05:15:00,
2013-04-06 00:30:00,30.2,29.7,29.80,NW,315,0.0,-999.0,98,-99.99,,,0.00,Acu-Link.com,2013-04-06 05:30:00,
2013-04-06 00:45:00,30.2,29.7,29.80,NNW,337,0.0,-999.0,98,-99.99,,,0.00,Acu-Link.com,2013-04-06 05:45:00,
2013-04-06 01:00:00,30.2,29.7,29.79,NNW,337,1.1,-999.0,98,-99.99,,,0.00,Acu-Link.com,2013-04-06 06:00:00,
2013-04-06 01:16:00,30.2,29.7,29.79,NNW,337,1.6,-999.0,98,-99.99,,,0.00,Acu-Link.com,2013-04-06 06:16:00,
2013-04-06 07:03:00,30.2,29.7,29.68,NNW,337,0.0,-999.0,98,-99.99,,,0.00,Acu-Link.com,2013-04-06 12:03:00,
2013-04-06 07:49:00,30.2,29.7,29.68,NNW,337,0.0,-999.0,98,-99.99,,,0.00,Acu-Link.com,2013-04-06 12:49:00,
2013-04-06 08:04:00,30.2,29.7,29.69,NNW,337,0.0,-999.0,98,-99.99,,,0.00,Acu-Link.com,2013-04-06 13:04:00,
2013-04-06 08:19:00,32.0,31.5,29.69,NNW,337,0.0,-999.0,98,-99.99,,,0.00,Acu-Link.com,2013-04-06 13:19:00,
2013-04-06 08:34:00,32.0,31.5,29.69,NNW,337,0.0,-999.0,98,-99.99,,,0.00,Acu-Link.com,2013-04-06 13:34:00,
2013-04-06 08:49:00,32.0,31.5,29.69,NNW,337,0.0,-999.0,98,-99.99,,,0.00,Acu-Link.com,2013-04-06 13:49:00,
2013-04-06 09:05:00,32.0,31.5,29.69,NNW,337,0.0,-999.0,98,-99.99,,,0.00,Acu-Link.com,2013-04-06 14:05:00,
2013-04-06 09:20:00,32.0,31.5,29.69,North,0,3.6,-999.0,98,-99.99,,,0.00,Acu-Link.com,2013-04-06 14:20:00,
2013-04-06 09:35:00,32.0,31.5,29.68,North,0,2.7,-999.0,98,-99.99,,,0.00,Acu-Link.com,2013-04-06 14:35:00,
2013-04-06 10:06:00,35.6,35.1,29.67,North,0,0.0,-999.0,98,-99.99,,,0.00,Acu-Link.com,2013-04-06 15:06:00,
2013-04-06 10:37:00,33.8,33.3,29.67,North,0,0.0,-999.0,98,-99.99,,,0.00,Acu-Link.com,2013-04-06 15:37:00,
2013-04-06 10:52:00,35.6,35.1,29.67,NE,45,2.7,-999.0,98,-99.99,,,0.00,Acu-Link.com,2013-04-06 15:52:00,
2013-04-06 11:07:00,33.8,33.3,29.67,North,0,2.7,-999.0,98,-99.99,,,0.00,Acu-Link.com,2013-04-06 16:07:00,
2013-04-06 11:22:00,33.8,33.3,29.68,North,0,3.6,-999.0,98,-99.99,,,0.02,Acu-Link.com,2013-04-06 16:22:00,
2013-04-06 11:38:00,33.8,33.3,29.67,North,0,1.6,-999.0,98,-99.99,,,0.05,Acu-Link.com,2013-04-06 16:38:00,
2013-04-06 11:53:00,35.6,35.1,29.68,North,0,2.0,-999.0,98,-99.99,,,0.06,Acu-Link.com,2013-04-06 16:53:00,
2013-04-06 12:08:00,33.8,33.3,29.68,North,0,0.0,-999.0,98,-99.99,,,0.08,Acu-Link.com,2013-04-06 17:08:00,
2013-04-06 12:23:00,33.8,33.3,29.68,NNE,22,1.6,-999.0,98,-99.99,,,0.08,Acu-Link.com,2013-04-06 17:23:00,
2013-04-06 12:38:00,35.6,35.1,29.67,North,0,4.0,-999.0,98,-99.99,,,0.08,Acu-Link.com,2013-04-06 17:38:00,
2013-04-06 12:53:00,35.6,35.1,29.67,NE,45,2.7,-999.0,98,-99.99,,,0.08,Acu-Link.com,2013-04-06 17:53:00,
2013-04-06 13:08:00,35.6,35.1,29.68,SE,135,3.6,-999.0,98,-99.99,,,0.08,Acu-Link.com,2013-04-06 18:08:00,
2013-04-06 13:24:00,35.6,35.1,29.68,NW,315,1.6,-999.0,98,-99.99,,,0.08,Acu-Link.com,2013-04-06 18:24:00,
2013-04-06 13:39:00,35.6,35.1,29.68,NNE,22,1.6,-999.0,98,-99.99,,,0.08,Acu-Link.com,2013-04-06 18:39:00,
2013-04-06 13:54:00,35.6,35.1,29.68,NNE,22,6.3,-999.0,98,-99.99,,,0.08,Acu-Link.com,2013-04-06 18:54:00,
2013-04-06 14:09:00,35.6,35.1,29.68,North,0,0.0,-999.0,98,-99.99,,,0.08,Acu-Link.com,2013-04-06 19:09:00,
2013-04-06 14:25:00,35.6,35.1,29.68,NNW,337,6.3,-999.0,98,-99.99,,,0.08,Acu-Link.com,2013-04-06 19:25:00,
2013-04-06 14:40:00,35.6,35.1,29.68,North,0,3.6,-999.0,98,-99.99,,,0.08,Acu-Link.com,2013-04-06 19:40:00,
2013-04-06 14:55:00,35.6,35.1,29.68,NE,45,4.7,-999.0,98,-99.99,,,0.08,Acu-Link.com,2013-04-06 19:55:00,
2013-04-06 15:10:00,35.6,35.1,29.68,East,90,5.6,-999.0,98,-99.99,,,0.08,Acu-Link.com,2013-04-06 20:10:00,
2013-04-06 15:25:00,35.6,35.1,29.69,North,0,9.2,-999.0,98,-99.99,,,0.08,Acu-Link.com,2013-04-06 20:25:00,
2013-04-06 15:41:00,37.4,36.9,29.68,NE,45,6.3,-999.0,98,-99.99,,,0.08,Acu-Link.com,2013-04-06 20:41:00,
2013-04-06 16:11:00,37.4,36.9,29.69,North,0,7.8,-999.0,98,-99.99,,,0.08,Acu-Link.com,2013-04-06 21:11:00,
2013-04-06 16:27:00,35.6,35.1,29.69,North,0,7.8,-999.0,98,-99.99,,,0.08,Acu-Link.com,2013-04-06 21:27:00,
2013-04-06 16:42:00,37.4,36.9,29.70,NE,45,8.7,-999.0,98,-99.99,,,0.08,Acu-Link.com,2013-04-06 21:42:00,
2013-04-06 16:57:00,35.6,35.1,29.70,West,270,8.7,-999.0,98,-99.99,,,0.08,Acu-Link.com,2013-04-06 21:57:00,
2013-04-06 17:12:00,35.6,35.1,29.70,North,0,8.7,-999.0,98,-99.99,,,0.08,Acu-Link.com,2013-04-06 22:12:00,
2013-04-06 17:28:00,35.6,35.1,29.71,WNW,292,6.7,-999.0,98,-99.99,,,0.08,Acu-Link.com,2013-04-06 22:28:00,
2013-04-06 17:43:00,35.6,35.1,29.71,North,0,8.7,-999.0,98,-99.99,,,0.08,Acu-Link.com,2013-04-06 22:43:00,
2013-04-06 17:58:00,35.6,35.1,29.72,East,90,6.3,-999.0,98,-99.99,,,0.08,Acu-Link.com,2013-04-06 22:58:00,
2013-04-06 18:13:00,35.6,35.1,29.72,NNE,22,6.7,-999.0,98,-99.99,,,0.08,Acu-Link.com,2013-04-06 23:13:00,
2013-04-06 18:59:00,33.8,33.3,29.73,NE,45,5.6,-999.0,98,-99.99,,,0.08,Acu-Link.com,2013-04-06 23:59:00,
2013-04-06 19:14:00,33.8,33.3,29.74,North,0,4.0,-999.0,98,-99.99,,,0.08,Acu-Link.com,2013-04-07 00:14:00,
2013-04-06 19:29:00,33.8,33.3,29.74,NNW,337,1.1,-999.0,98,-99.99,,,0.08,Acu-Link.com,2013-04-07 00:29:00,
2013-04-06 19:44:00,33.8,33.3,29.74,NNE,22,8.3,-999.0,98,-99.99,,,0.08,Acu-Link.com,2013-04-07 00:44:00,
2013-04-06 20:00:00,33.8,33.3,29.74,North,0,1.1,-999.0,98,-99.99,,,0.08,Acu-Link.com,2013-04-07 01:00:00,
2013-04-06 20:15:00,33.8,33.3,29.75,North,0,2.7,-999.0,98,-99.99,,,0.08,Acu-Link.com,2013-04-07 01:15:00,
2013-04-06 20:30:00,33.8,33.3,29.75,North,0,0.0,-999.0,98,-99.99,,,0.08,Acu-Link.com,2013-04-07 01:30:00,
2013-04-06 20:46:00,32.0,31.5,29.75,North,0,2.7,-999.0,98,-99.99,,,0.08,Acu-Link.com,2013-04-07 01:46:00,
2013-04-06 21:16:00,32.0,31.5,29.76,North,0,0.0,-999.0,98,-99.99,,,0.08,Acu-Link.com,2013-04-07 02:16:00,
2013-04-06 21:31:00,32.0,31.5,29.76,North,0,0.0,-999.0,98,-99.99,,,0.08,Acu-Link.com,2013-04-07 02:31:00,
2013-04-06 22:02:00,32.0,31.5,29.77,North,0,0.0,-999.0,98,-99.99,,,0.08,Acu-Link.com,2013-04-07 03:02:00,
2013-04-06 22:17:00,32.0,31.5,29.77,North,0,0.0,-999.0,98,-99.99,,,0.08,Acu-Link.com,2013-04-07 03:17:00,
2013-04-06 22:33:00,32.0,31.5,29.77,North,0,3.1,-999.0,98,-99.99,,,0.08,Acu-Link.com,2013-04-07 03:33:00,
2013-04-06 22:48:00,32.0,31.5,29.78,North,0,3.1,-999.0,98,-99.99,,,0.08,Acu-Link.com,2013-04-07 03:48:00,
2013-04-06 23:03:00,32.0,31.5,29.78,North,0,1.6,-999.0,98,-99.99,,,0.08,Acu-Link.com,2013-04-07 04:03:00,
2013-04-06 23:18:00,32.0,31.5,29.78,NNW,337,4.0,-999.0,98,-99.99,,,0.08,Acu-Link.com,2013-04-07 04:18:00,
2013-04-06 23:33:00,32.0,31.5,29.78,North,0,1.6,-999.0,98,-99.99,,,0.08,Acu-Link.com,2013-04-07 04:33:00,